Time;durP1;ratioP1;P1;durP2;ratioP2;P2;SDS_P1;SDS_P2;PMS_P1;PMS_P2;Temp;Humidity;BMP_temperature;BMP_pressure;BME280_temperature;BME280_humidity;BME280_pressure;Samples;Min_cycle;Max_cycle;Signal;HPM_P1;HPM_P2
2021/09/23 00:00:23;;;;;;;17.63;10.50;;;;;;;10.12;80.24;102090.22;4992805;28;20034;-78
2021/09/23 00:03:09;;;;;;;19.63;10.75;;;;;;;10.13;80.02;102084.91;5005478;28;20021;-77
2021/09/23 00:05:34;;;;;;;23.08;12.02;;;;;;;10.12;79.85;102078.06;4996821;28;20037;-77
2021/09/23 00:08:00;;;;;;;20.10;10.70;;;;;;;10.13;79.86;102082.31;4990290;28;20037;-78
2021/09/23 00:10:28;;;;;;;17.52;11.07;;;;;;;10.14;80.08;102080.53;4995307;28;20079;-78
2021/09/23 00:12:55;;;;;;;24.45;12.68;;;;;;;10.13;80.42;102079.72;4989418;28;20550;-78
2021/09/23 00:15:21;;;;;;;24.00;11.85;;;;;;;10.15;80.62;102076.97;4994136;28;20030;-79
2021/09/23 00:17:49;;;;;;;23.75;12.05;;;;;;;10.10;80.62;102074.78;5005914;28;20321;-78
2021/09/23 00:20:23;;;;;;;22.25;11.75;;;;;;;10.04;80.29;102077.84;5011753;28;20033;-78
2021/09/23 00:22:49;;;;;;;21.50;12.65;;;;;;;9.97;80.18;102068.09;5009543;28;20077;-77
2021/09/23 00:25:15;;;;;;;19.77;11.52;;;;;;;9.89;80.01;102068.69;4988427;28;20136;-77
2021/09/23 00:27:41;;;;;;;20.83;11.75;;;;;;;9.86;80.15;102059.38;5007244;28;20220;-77
2021/09/23 00:30:08;;;;;;;18.73;11.63;;;;;;;9.88;80.21;102069.63;4989197;28;20030;-78
2021/09/23 00:32:34;;;;;;;23.30;12.30;;;;;;;9.89;80.34;102071.28;4991421;28;20037;-77
2021/09/23 00:34:59;;;;;;;23.25;12.35;;;;;;;9.83;80.48;102067.41;4991795;28;20033;-77
2021/09/23 00:37:25;;;;;;;24.35;12.65;;;;;;;9.78;80.64;102066.13;4989731;28;20045;-78
2021/09/23 00:39:51;;;;;;;21.65;11.32;;;;;;;9.72;80.33;102064.84;4990778;28;20057;-78
2021/09/23 00:42:16;;;;;;;21.40;12.02;;;;;;;9.69;80.62;102052.94;4993182;28;20120;-77
2021/09/23 00:44:56;;;;;;;24.83;12.52;;;;;;;9.71;80.30;102043.28;4970221;28;20069;-77
2021/09/23 00:47:22;;;;;;;22.20;12.77;;;;;;;9.75;80.48;102044.66;4971926;28;20030;-78
2021/09/23 00:49:48;;;;;;;23.52;12.73;;;;;;;9.77;80.39;102043.75;5012365;28;20018;-77
2021/09/23 00:52:13;;;;;;;22.92;12.40;;;;;;;9.79;80.83;102053.03;4975251;28;20772;-78
2021/09/23 00:54:39;;;;;;;26.60;12.38;;;;;;;9.81;80.67;102053.72;4991791;28;20116;-78
2021/09/23 00:57:05;;;;;;;25.52;11.52;;;;;;;9.80;80.36;102059.88;4974852;28;20038;-77
2021/09/23 00:59:30;;;;;;;24.27;13.85;;;;;;;9.72;80.01;102044.94;4992524;28;20493;-78
2021/09/23 01:01:58;;;;;;;22.60;12.07;;;;;;;9.63;80.50;102031.88;4995735;28;20038;-77
2021/09/23 01:04:24;;;;;;;21.27;12.05;;;;;;;9.61;80.48;102033.78;4982443;28;20033;-78
2021/09/23 01:06:52;;;;;;;24.10;12.60;;;;;;;9.60;80.39;102030.34;4980992;28;20030;-77
2021/09/23 01:09:17;;;;;;;29.27;13.30;;;;;;;9.62;80.20;102028.44;5008404;28;20454;-78
2021/09/23 01:11:44;;;;;;;23.05;13.35;;;;;;;9.62;80.53;102017.28;4993623;28;20109;-78
2021/09/23 01:14:11;;;;;;;27.13;15.20;;;;;;;9.57;80.86;102009.88;5006419;28;20033;-78
2021/09/23 01:16:47;;;;;;;27.48;14.55;;;;;;;9.57;81.50;102003.84;4992496;28;20084;-78
2021/09/23 01:19:35;;;;;;;25.00;13.27;;;;;;;9.59;81.48;102001.97;5004660;28;20034;-77
2021/09/23 01:22:02;;;;;;;27.90;14.23;;;;;;;9.60;81.29;102001.03;4987235;28;20048;-78
2021/09/23 01:24:47;;;;;;;25.80;14.27;;;;;;;9.61;81.41;101997.50;4971007;28;20040;-78
2021/09/23 01:27:13;;;;;;;31.80;15.27;;;;;;;9.59;81.58;101991.59;4977227;28;20036;-78
2021/09/23 01:29:40;;;;;;;27.98;14.95;;;;;;;9.58;81.80;101983.03;4992131;28;20034;-78
2021/09/23 01:32:11;;;;;;;36.65;16.65;;;;;;;9.54;81.67;101985.03;4990725;28;20556;-77
2021/09/23 01:34:39;;;;;;;26.83;14.05;;;;;;;9.50;81.93;101969.88;4974287;28;20045;-77
2021/09/23 01:37:06;;;;;;;32.15;14.57;;;;;;;9.51;82.08;101969.75;4985338;28;20120;-77
2021/09/23 01:39:33;;;;;;;26.25;13.68;;;;;;;9.50;82.24;101973.28;4989533;28;20107;-78
2021/09/23 01:42:07;;;;;;;26.67;14.40;;;;;;;9.52;82.07;101971.38;4985659;28;20061;-77
2021/09/23 01:44:33;;;;;;;35.13;16.35;;;;;;;9.53;81.47;101970.44;4989121;28;20045;-78
2021/09/23 01:47:03;;;;;;;28.02;14.43;;;;;;;9.52;81.67;101973.97;4987513;28;20096;-77
2021/09/23 01:49:33;;;;;;;34.53;14.00;;;;;;;9.47;81.71;101962.31;4986546;28;20395;-77
2021/09/23 01:51:59;;;;;;;31.70;16.05;;;;;;;9.44;81.71;101971.16;4973504;28;20030;-77
2021/09/23 01:54:25;;;;;;;29.50;15.15;;;;;;;9.41;81.84;101960.22;4988855;28;20022;-77
2021/09/23 01:56:54;;;;;;;26.50;13.50;;;;;;;9.34;81.82;101962.47;4973525;28;20569;-77
2021/09/23 01:59:22;;;;;;;26.67;15.07;;;;;;;9.29;82.08;101960.25;4985631;28;20026;-77
2021/09/23 02:01:49;;;;;;;26.77;13.73;;;;;;;9.26;82.24;101965.66;4964385;28;20113;-77
2021/09/23 02:04:15;;;;;;;22.17;12.38;;;;;;;9.21;82.38;101956.59;4990368;28;20026;-78
2021/09/23 02:06:44;;;;;;;32.13;14.68;;;;;;;9.18;82.49;101952.47;4987293;28;20555;-78
2021/09/23 02:09:10;;;;;;;28.90;14.55;;;;;;;9.16;82.50;101949.19;4969121;28;20404;-78
2021/09/23 02:11:36;;;;;;;32.35;15.82;;;;;;;9.18;82.16;101941.31;4989329;28;20134;-76
2021/09/23 02:14:03;;;;;;;29.13;15.48;;;;;;;9.16;82.16;101936.25;4969831;28;20046;-77
2021/09/23 02:16:28;;;;;;;33.22;16.85;;;;;;;9.18;81.88;101946.50;4985862;28;20026;-78
2021/09/23 02:18:57;;;;;;;33.30;16.60;;;;;;;9.16;81.79;101944.03;4987367;28;20030;-78
2021/09/23 02:21:23;;;;;;;30.63;15.07;;;;;;;9.13;81.77;101944.25;4986843;28;20034;-78
2021/09/23 02:23:50;;;;;;;27.00;15.18;;;;;;;9.05;81.84;101944.84;4986974;28;20029;-77
2021/09/23 02:26:16;;;;;;;30.02;15.60;;;;;;;9.00;81.78;101930.59;4985324;28;20084;-78
2021/09/23 02:28:41;;;;;;;27.73;16.35;;;;;;;8.96;81.93;101928.25;4989074;28;20406;-77
2021/09/23 02:31:07;;;;;;;27.77;14.73;;;;;;;8.95;82.04;101934.38;4972348;28;20068;-78
2021/09/23 02:33:33;;;;;;;29.23;16.35;;;;;;;8.94;81.83;101924.97;4986556;28;20017;-77
2021/09/23 02:36:00;;;;;;;31.98;17.23;;;;;;;8.95;81.78;101915.47;4984514;28;20384;-77
2021/09/23 02:38:26;;;;;;;31.85;17.05;;;;;;;8.91;81.74;101919.19;4984747;28;20033;-77
2021/09/23 02:40:52;;;;;;;33.75;16.10;;;;;;;8.89;82.01;101913.31;4991600;28;20037;-77
2021/09/23 02:43:18;;;;;;;35.72;18.40;;;;;;;8.87;82.21;101912.63;4989256;28;20052;-77
2021/09/23 02:45:44;;;;;;;34.88;18.58;;;;;;;8.87;82.47;101912.63;4987543;28;20064;-78
2021/09/23 02:48:09;;;;;;;36.25;17.77;;;;;;;8.84;82.34;101916.28;4988719;28;20026;-78
2021/09/23 02:50:35;;;;;;;33.58;16.50;;;;;;;8.82;82.36;101914.75;4990529;28;20041;-78
2021/09/23 02:53:00;;;;;;;38.45;17.00;;;;;;;8.80;82.30;101911.44;4986338;28;20045;-78
2021/09/23 02:55:26;;;;;;;36.28;17.65;;;;;;;8.72;82.27;101909.44;4993499;28;20026;-78
2021/09/23 02:57:52;;;;;;;34.72;17.65;;;;;;;8.70;82.30;101901.81;5008436;28;20486;-78
2021/09/23 03:00:19;;;;;;;26.60;16.23;;;;;;;8.70;82.14;101901.81;4993672;28;20128;-77
2021/09/23 03:02:46;;;;;;;36.92;17.98;;;;;;;8.69;82.20;101894.97;4996636;28;20033;-78
2021/09/23 03:05:11;;;;;;;29.20;14.55;;;;;;;8.69;82.28;101894.16;4981444;28;20494;-78
2021/09/23 03:07:37;;;;;;;38.63;16.00;;;;;;;8.68;82.46;101892.50;4976427;28;20041;-78
2021/09/23 03:10:04;;;;;;;35.22;17.60;;;;;;;8.64;82.32;101906.63;4994168;28;20025;-78
2021/09/23 03:12:29;;;;;;;33.35;16.42;;;;;;;8.60;82.33;101906.03;4972581;28;20053;-78
2021/09/23 03:14:55;;;;;;;30.08;14.77;;;;;;;8.54;82.67;101903.91;4987847;28;20037;-78
2021/09/23 03:17:20;;;;;;;35.30;17.77;;;;;;;8.53;82.41;101899.66;4988252;28;20479;-78
2021/09/23 03:19:46;;;;;;;40.05;18.27;;;;;;;8.43;82.65;101899.53;4984661;28;20113;-77
2021/09/23 03:22:11;;;;;;;31.25;16.73;;;;;;;8.40;83.01;101889.41;4979608;28;20664;-78
2021/09/23 03:24:37;;;;;;;30.63;15.40;;;;;;;8.41;82.93;101890.22;4976215;28;20095;-78
2021/09/23 03:27:03;;;;;;;34.15;16.15;;;;;;;8.38;83.30;101901.59;4990500;28;20466;-78
2021/09/23 03:29:29;;;;;;;35.45;14.93;;;;;;;8.35;83.26;101894.09;5010695;28;20091;-78
2021/09/23 03:31:54;;;;;;;25.83;14.07;;;;;;;8.32;83.52;101905.47;5009171;28;20522;-77
2021/09/23 03:34:20;;;;;;;31.95;15.85;;;;;;;8.30;83.74;101906.53;4975348;28;20379;-77
2021/09/23 03:36:45;;;;;;;29.35;14.35;;;;;;;8.31;83.68;101903.84;5010712;28;20034;-78
2021/09/23 03:39:13;;;;;;;31.42;16.63;;;;;;;8.33;83.06;101893.38;4977647;28;20029;-77
2021/09/23 03:41:38;;;;;;;32.75;17.25;;;;;;;8.31;82.96;101885.75;5001213;28;20044;-78
2021/09/23 03:44:04;;;;;;;36.78;17.13;;;;;;;8.24;83.51;101876.78;4990455;28;20046;-78
2021/09/23 03:46:32;;;;;;;38.65;17.38;;;;;;;8.20;83.86;101865.06;4992854;28;20144;-78
2021/09/23 03:48:58;;;;;;;42.42;18.17;;;;;;;8.20;84.42;101862.47;4988676;28;20037;-78
2021/09/23 03:51:23;;;;;;;37.40;17.08;;;;;;;8.18;84.45;101866.94;5000526;28;20041;-78
2021/09/23 03:53:49;;;;;;;33.13;17.35;;;;;;;8.19;84.79;101861.66;4978225;28;20044;-77
2021/09/23 03:56:15;;;;;;;30.50;15.55;;;;;;;8.20;84.81;101862.47;4978756;28;20048;-78
2021/09/23 03:58:44;;;;;;;30.42;15.63;;;;;;;8.21;84.58;101860.69;4991651;28;20053;-78
2021/09/23 04:01:10;;;;;;;40.60;16.25;;;;;;;8.20;84.66;101859.88;4996549;28;20049;-77
2021/09/23 04:03:37;;;;;;;29.50;15.65;;;;;;;8.22;84.57;101868.34;4997316;28;20077;-79
2021/09/23 04:06:02;;;;;;;31.90;17.60;;;;;;;8.21;84.72;101863.28;4995377;28;20041;-77
2021/09/23 04:08:28;;;;;;;33.17;16.10;;;;;;;8.23;84.53;101864.00;4993506;28;20026;-77
2021/09/23 04:10:55;;;;;;;27.52;15.02;;;;;;;8.22;84.40;101855.41;5013937;28;20062;-78
2021/09/23 04:13:21;;;;;;;29.52;15.75;;;;;;;8.25;84.24;101864.69;4994651;28;20510;-78
2021/09/23 04:15:50;;;;;;;32.28;15.73;;;;;;;8.23;84.06;101854.50;4972304;28;20486;-78
2021/09/23 04:18:17;;;;;;;34.75;16.98;;;;;;;8.22;83.96;101860.59;4993256;28;20037;-77
2021/09/23 04:20:45;;;;;;;29.95;14.20;;;;;;;8.21;83.87;101848.59;4976259;28;20034;-78
2021/09/23 04:23:12;;;;;;;28.73;14.75;;;;;;;8.23;83.57;101848.47;4983173;28;20551;-78
2021/09/23 04:25:38;;;;;;;29.92;14.00;;;;;;;8.23;83.59;101845.91;4974321;28;20033;-78
2021/09/23 04:28:05;;;;;;;39.13;14.48;;;;;;;8.19;83.38;101837.56;4996089;28;20122;-78
2021/09/23 04:30:30;;;;;;;37.80;15.88;;;;;;;8.19;83.53;101843.56;4992630;28;20038;-78
2021/09/23 04:32:57;;;;;;;31.30;14.95;;;;;;;8.19;83.52;101845.31;5006771;28;20065;-78
2021/09/23 04:35:23;;;;;;;26.92;14.75;;;;;;;8.17;83.45;101848.03;4992103;28;20057;-78
2021/09/23 04:37:48;;;;;;;26.88;14.65;;;;;;;8.17;83.36;101849.75;4995760;28;20080;-78
2021/09/23 04:40:14;;;;;;;32.28;15.68;;;;;;;8.17;83.53;101845.44;4991785;28;20033;-78
2021/09/23 04:42:41;;;;;;;27.55;14.73;;;;;;;8.18;84.14;101843.69;4978333;28;20042;-78
2021/09/23 04:45:08;;;;;;;30.48;14.18;;;;;;;8.19;84.19;101848.72;4976621;28;20069;-78
2021/09/23 04:47:40;;;;;;;28.60;15.65;;;;;;;8.21;84.78;101858.94;4973054;28;20033;-79
2021/09/23 04:50:07;;;;;;;25.90;13.82;;;;;;;8.24;84.97;101863.06;4989646;28;20088;-78
2021/09/23 04:52:32;;;;;;;26.20;14.65;;;;;;;8.25;84.86;101864.69;4993838;28;20025;-78
2021/09/23 04:54:58;;;;;;;23.48;14.05;;;;;;;8.26;85.21;101866.34;4981205;28;20036;-79
2021/09/23 04:57:26;;;;;;;27.60;14.77;;;;;;;8.27;85.04;101871.41;4987663;28;20057;-78
2021/09/23 04:59:56;;;;;;;27.85;13.20;;;;;;;8.27;85.14;101880.91;4978760;28;20037;-79
2021/09/23 05:02:22;;;;;;;30.27;13.93;;;;;;;8.28;85.41;101888.56;4972299;28;20039;-78
2021/09/23 05:04:47;;;;;;;26.27;13.63;;;;;;;8.27;85.01;101880.91;4990593;28;20060;-78
2021/09/23 05:07:13;;;;;;;21.98;12.90;;;;;;;8.28;85.31;101874.81;4977841;28;20029;-78
2021/09/23 05:09:38;;;;;;;23.75;12.73;;;;;;;8.29;85.35;101879.88;4989056;28;20072;-78
2021/09/23 05:12:04;;;;;;;27.17;14.10;;;;;;;8.32;85.97;101882.22;4987980;28;20034;-78
2021/09/23 05:14:30;;;;;;;24.63;12.30;;;;;;;8.31;86.21;101875.41;4987317;28;20054;-78
2021/09/23 05:16:56;;;;;;;21.75;12.50;;;;;;;8.31;86.19;101880.56;4991163;28;20732;-79
2021/09/23 05:19:22;;;;;;;25.67;12.07;;;;;;;8.31;86.55;101885.75;4993952;28;20029;-79
2021/09/23 05:21:47;;;;;;;22.75;11.82;;;;;;;8.32;86.76;101877.03;4992576;28;20041;-79
2021/09/23 05:24:16;;;;;;;31.15;12.65;;;;;;;8.33;86.82;101880.47;4997860;28;20037;-78
2021/09/23 05:26:43;;;;;;;22.48;12.15;;;;;;;8.35;86.65;101876.00;4992685;28;20373;-79
2021/09/23 05:29:08;;;;;;;27.20;13.90;;;;;;;8.41;86.94;101879.88;4991818;28;20121;-79
2021/09/23 05:31:35;;;;;;;24.80;12.63;;;;;;;8.41;87.04;101864.38;5010744;28;20064;-78
2021/09/23 05:34:03;;;;;;;21.52;12.20;;;;;;;8.49;87.57;101865.47;4998441;28;20041;-79
2021/09/23 05:36:28;;;;;;;22.08;11.57;;;;;;;8.52;87.87;101857.47;5006007;28;20401;-79
2021/09/23 05:38:58;;;;;;;23.33;12.93;;;;;;;8.56;87.99;101848.56;5008316;28;20032;-78
2021/09/23 05:41:24;;;;;;;24.98;12.63;;;;;;;8.62;88.67;101855.00;5003829;28;20052;-78
2021/09/23 05:43:49;;;;;;;26.35;12.55;;;;;;;8.65;88.56;101851.38;4994658;28;20029;-78
2021/09/23 05:46:16;;;;;;;27.88;12.52;;;;;;;8.69;88.69;101843.28;4978384;28;20494;-78
2021/09/23 05:48:41;;;;;;;22.58;12.00;;;;;;;8.70;88.85;101847.50;4991433;28;20034;-79
2021/09/23 05:51:07;;;;;;;23.63;12.82;;;;;;;8.71;88.71;101843.16;5017443;28;20041;-78
2021/09/23 05:53:32;;;;;;;25.70;12.18;;;;;;;8.74;89.07;101840.34;4992203;28;20041;-79
2021/09/23 05:55:58;;;;;;;27.92;12.98;;;;;;;8.80;89.20;101836.44;4990619;28;20034;-79
2021/09/23 05:58:23;;;;;;;22.02;11.00;;;;;;;8.83;89.23;101836.19;4974870;28;20056;-79
2021/09/23 06:00:48;;;;;;;20.40;11.48;;;;;;;8.85;89.35;101829.16;4994769;28;20042;-79
2021/09/23 06:03:14;;;;;;;21.95;11.70;;;;;;;8.90;89.27;101825.25;4988940;28;20049;-79
2021/09/23 06:05:39;;;;;;;20.88;11.85;;;;;;;8.96;89.28;101813.59;5001219;28;20034;-78
2021/09/23 06:08:05;;;;;;;22.23;12.85;;;;;;;9.03;89.51;101814.78;5017414;28;20037;-79
2021/09/23 06:10:30;;;;;;;24.65;11.75;;;;;;;9.14;89.32;101821.69;4972987;28;20092;-79
2021/09/23 06:12:56;;;;;;;23.88;12.15;;;;;;;9.16;89.71;101814.63;4999760;28;20037;-78
2021/09/23 06:15:21;;;;;;;26.55;12.60;;;;;;;9.23;89.82;101812.34;4980779;28;20052;-79
2021/09/23 06:17:47;;;;;;;21.38;11.05;;;;;;;9.32;89.87;101807.28;5014603;28;20552;-78
2021/09/23 06:20:13;;;;;;;24.45;12.05;;;;;;;9.50;89.60;101804.97;4992677;28;20030;-79
2021/09/23 06:22:39;;;;;;;23.85;12.43;;;;;;;9.52;89.43;101803.06;4991452;28;20548;-79
2021/09/23 06:25:05;;;;;;;25.25;12.82;;;;;;;9.76;89.20;101799.44;4991692;28;20077;-78
2021/09/23 06:27:30;;;;;;;28.27;12.05;;;;;;;9.82;89.15;101809.28;5001575;28;20037;-78
2021/09/23 06:29:56;;;;;;;22.30;11.45;;;;;;;10.02;88.89;101812.84;5002405;28;20045;-79
2021/09/23 06:32:21;;;;;;;19.52;11.30;;;;;;;10.29;88.24;101820.06;4995254;28;20040;-78
2021/09/23 06:34:47;;;;;;;20.92;11.05;;;;;;;10.82;86.53;101816.47;5001049;28;20187;-78
2021/09/23 06:37:13;;;;;;;16.20;9.90;;;;;;;11.45;84.21;101810.94;4991057;28;20566;-79
2021/09/23 06:39:40;;;;;;;18.77;9.93;;;;;;;12.14;80.01;101803.88;4983213;28;20072;-78
2021/09/23 06:42:06;;;;;;;17.75;9.77;;;;;;;12.66;77.07;101812.03;4977717;28;20030;-78
2021/09/23 06:44:33;;;;;;;16.17;9.18;;;;;;;13.07;74.96;101803.00;4983113;28;20144;-78
2021/09/23 06:46:58;;;;;;;18.02;8.93;;;;;;;13.40;74.10;101802.38;5002582;28;20407;-78
2021/09/23 06:49:25;;;;;;;15.25;8.35;;;;;;;13.71;72.17;101801.13;4980718;28;20049;-77
2021/09/23 06:51:51;;;;;;;17.92;8.07;;;;;;;14.06;70.41;101789.78;4979934;28;20045;-78
2021/09/23 06:54:18;;;;;;;14.90;7.88;;;;;;;14.44;69.30;101785.06;5020142;28;20042;-79
2021/09/23 06:56:43;;;;;;;16.00;8.48;;;;;;;14.73;68.49;101795.16;5012703;28;20022;-78
2021/09/23 06:59:09;;;;;;;25.10;7.95;;;;;;;15.06;67.20;101791.78;4994025;28;20034;-77
2021/09/23 07:01:36;;;;;;;13.88;7.70;;;;;;;15.36;66.06;101787.72;5016434;28;20033;-78
2021/09/23 07:04:10;;;;;;;16.92;6.95;;;;;;;15.67;64.91;101789.66;4997399;28;20084;-77
2021/09/23 07:06:54;;;;;;;15.02;7.40;;;;;;;16.10;64.12;101793.66;5010723;28;20419;-79
2021/09/23 07:09:25;;;;;;;10.13;6.50;;;;;;;16.39;62.80;101784.44;4982731;28;20025;-78
2021/09/23 07:11:51;;;;;;;14.52;7.50;;;;;;;16.56;61.86;101785.16;5002376;28;20032;-78
2021/09/23 07:14:17;;;;;;;11.18;6.65;;;;;;;16.51;61.14;101783.03;4986454;28;20053;-78
2021/09/23 07:16:43;;;;;;;11.98;7.30;;;;;;;16.66;60.80;101780.50;4997948;28;20649;-78
2021/09/23 07:19:09;;;;;;;13.82;6.80;;;;;;;16.90;60.47;101781.41;4990753;28;20029;-79
2021/09/23 07:21:34;;;;;;;17.67;6.43;;;;;;;16.87;60.77;101768.63;4986458;28;20280;-78
2021/09/23 07:24:00;;;;;;;12.23;6.95;;;;;;;17.02;60.45;101773.94;4996722;28;20042;-78
2021/09/23 07:26:26;;;;;;;12.90;6.65;;;;;;;17.26;59.53;101762.47;4992732;28;20474;-78
2021/09/23 07:28:52;;;;;;;12.05;6.50;;;;;;;17.54;58.70;101769.72;4994513;28;20052;-80
2021/09/23 07:31:17;;;;;;;10.48;6.68;;;;;;;17.72;58.23;101772.84;4977845;28;20038;-80
2021/09/23 07:33:44;;;;;;;13.07;6.93;;;;;;;17.79;57.50;101772.94;4994997;28;20286;-78
2021/09/23 07:36:12;;;;;;;12.75;6.43;;;;;;;17.85;57.40;101777.50;4999205;28;20037;-79
2021/09/23 07:38:38;;;;;;;11.50;6.60;;;;;;;18.04;57.66;101766.44;4981925;28;20066;-80
2021/09/23 07:41:03;;;;;;;13.25;6.95;;;;;;;17.93;57.68;101769.53;4998921;28;20124;-79
2021/09/23 07:43:29;;;;;;;15.00;10.70;;;;;;;18.07;57.03;101773.16;5000583;28;20111;-78
2021/09/23 07:45:56;;;;;;;32.42;22.17;;;;;;;18.19;56.93;101766.44;4995482;28;20034;-77
2021/09/23 07:48:21;;;;;;;19.73;12.73;;;;;;;18.11;57.30;101771.78;4988791;28;20096;-80
2021/09/23 07:50:49;;;;;;;51.45;31.27;;;;;;;18.28;57.33;101765.34;4984392;28;20042;-79
2021/09/23 07:53:15;;;;;;;16.50;8.68;;;;;;;18.34;55.99;101768.22;4981771;28;20461;-81
2021/09/23 07:55:40;;;;;;;10.43;6.57;;;;;;;18.67;56.20;101772.03;4989019;28;20129;-79
2021/09/23 07:58:06;;;;;;;11.43;6.47;;;;;;;18.82;55.25;101766.78;5020097;28;20061;-76
2021/09/23 08:00:31;;;;;;;10.25;6.38;;;;;;;18.97;55.12;101771.97;4994739;28;20039;-80
2021/09/23 08:02:58;;;;;;;13.77;6.45;;;;;;;19.15;55.18;101773.34;5007375;28;20103;-79
2021/09/23 08:05:28;;;;;;;9.35;6.65;;;;;;;19.51;54.54;101767.13;4997691;28;20502;-80
2021/09/23 08:07:56;;;;;;;14.63;8.05;;;;;;;19.73;53.96;101760.03;4985211;28;20042;-80
2021/09/23 08:10:22;;;;;;;14.82;8.73;;;;;;;19.48;53.71;101752.56;5001863;28;20021;-79
2021/09/23 08:12:48;;;;;;;14.93;8.02;;;;;;;19.79;54.44;101751.34;4997175;28;20034;-80
2021/09/23 08:15:17;;;;;;;14.77;6.85;;;;;;;19.82;53.47;101738.63;4981220;28;20034;-81
2021/09/23 08:18:00;;;;;;;12.63;7.18;;;;;;;19.32;53.87;101726.53;4995439;28;20410;-77
2021/09/23 08:20:46;;;;;;;11.20;6.68;;;;;;;19.02;54.72;101726.72;5015428;28;20125;-79
2021/09/23 08:23:13;;;;;;;10.68;6.20;;;;;;;19.15;54.34;101726.00;4992500;28;20092;-79
2021/09/23 08:25:39;;;;;;;12.25;6.30;;;;;;;19.43;53.46;101718.13;4981276;28;20044;-78
2021/09/23 08:28:07;;;;;;;13.43;6.63;;;;;;;19.79;52.46;101714.53;4995977;28;20029;-77
2021/09/23 08:30:33;;;;;;;20.58;6.78;;;;;;;20.10;51.93;101694.78;4988798;28;20029;-79
2021/09/23 08:32:58;;;;;;;13.40;7.80;;;;;;;20.20;50.47;101684.72;4995132;28;20036;-79
2021/09/23 08:35:24;;;;;;;11.40;6.45;;;;;;;20.28;51.23;101687.16;4972491;28;20544;-80
2021/09/23 08:37:50;;;;;;;10.77;6.00;;;;;;;20.52;50.45;101698.97;4988451;28;20030;-81
2021/09/23 08:40:16;;;;;;;13.73;6.93;;;;;;;20.61;51.06;101695.16;4978216;28;20398;-77
2021/09/23 08:42:44;;;;;;;11.18;6.68;;;;;;;20.89;49.38;101691.53;5003131;28;20022;-78
2021/09/23 08:45:12;;;;;;;13.45;5.80;;;;;;;20.82;49.85;101682.81;4994213;28;20076;-80
2021/09/23 08:47:37;;;;;;;14.88;6.80;;;;;;;20.93;49.80;101676.13;4988550;28;20037;-79
2021/09/23 08:50:09;;;;;;;13.07;7.43;;;;;;;20.72;48.41;101664.78;4972529;28;20394;-79
2021/09/23 08:52:35;;;;;;;16.40;6.85;;;;;;;20.91;48.87;101662.34;4985681;28;20037;-79
2021/09/23 08:55:03;;;;;;;11.82;6.68;;;;;;;20.93;49.29;101663.75;5000014;28;20133;-80
2021/09/23 08:57:29;;;;;;;14.32;6.45;;;;;;;20.95;49.42;101659.09;4993334;28;20048;-81
2021/09/23 08:59:55;;;;;;;9.13;5.80;;;;;;;20.98;49.28;101666.59;4984197;28;20085;-82
2021/09/23 09:02:22;;;;;;;11.40;5.90;;;;;;;21.13;49.87;101663.72;4983570;28;20034;-83
2021/09/23 09:05:18;;;;;;;13.90;5.97;;;;;;;21.18;48.78;101663.91;4996585;28;20109;-78
2021/09/23 09:08:16;;;;;;;9.82;6.45;;;;;;;21.09;48.97;101654.59;4972635;28;20494;-81
2021/09/23 09:10:58;;;;;;;9.63;5.95;;;;;;;20.67;49.79;101651.38;4991901;28;20044;-82
2021/09/23 09:13:33;;;;;;;11.20;6.03;;;;;;;20.96;49.77;101644.06;4976774;28;20409;-82
2021/09/23 09:16:05;;;;;;;16.52;6.47;;;;;;;20.85;50.36;101648.16;4998173;28;20577;-77
2021/09/23 09:18:31;;;;;;;11.85;5.82;;;;;;;20.70;48.90;101651.00;4982763;28;20569;-79
2021/09/23 09:20:58;;;;;;;14.40;6.20;;;;;;;20.64;50.17;101651.78;4991969;28;20041;-77
2021/09/23 09:23:30;;;;;;;10.50;5.70;;;;;;;20.71;50.27;101641.25;4997800;28;20068;-78
2021/09/23 09:25:56;;;;;;;11.48;6.38;;;;;;;20.42;50.77;101640.59;4983772;28;20045;-78
2021/09/23 09:28:22;;;;;;;11.48;5.78;;;;;;;20.54;50.39;101636.34;4979369;28;20025;-77
2021/09/23 09:30:58;;;;;;;10.40;6.38;;;;;;;20.55;50.99;101632.72;4981111;28;20132;-77
2021/09/23 09:33:44;;;;;;;12.98;5.90;;;;;;;20.40;51.09;101630.28;4981340;28;20613;-81
2021/09/23 09:36:37;;;;;;;10.25;6.15;;;;;;;20.48;50.96;101628.47;4992633;28;20200;-83
2021/09/23 09:39:23;;;;;;;12.60;5.90;;;;;;;20.08;53.50;101629.22;4992884;28;20026;-81
2021/09/23 09:41:52;;;;;;;10.15;6.28;;;;;;;20.39;51.85;101633.09;4984381;28;20026;-76
2021/09/23 09:44:19;;;;;;;14.93;7.35;;;;;;;20.33;50.90;101624.19;5003124;28;20045;-80
2021/09/23 09:46:52;;;;;;;9.95;6.15;;;;;;;20.39;50.64;101633.91;4967540;28;20394;-80
2021/09/23 09:49:21;;;;;;;15.45;8.52;;;;;;;20.20;50.86;101634.69;4974834;28;20412;-82
2021/09/23 09:51:50;;;;;;;13.55;7.40;;;;;;;20.32;51.83;101633.06;5001308;28;20242;-83
2021/09/23 09:54:18;;;;;;;11.48;6.35;;;;;;;20.52;50.91;101629.66;4985035;28;20037;-81
2021/09/23 09:56:47;;;;;;;10.90;6.88;;;;;;;20.28;51.71;101623.16;4977628;28;20034;-78
2021/09/23 09:59:15;;;;;;;14.93;6.18;;;;;;;20.29;50.80;101620.34;5000620;28;20029;-80
2021/09/23 10:01:47;;;;;;;12.73;7.07;;;;;;;20.07;51.46;101614.41;4993031;28;20030;-79
2021/09/23 10:04:14;;;;;;;14.68;6.70;;;;;;;20.09;51.40;101622.13;4990458;28;20273;-81
2021/09/23 10:06:41;;;;;;;13.70;7.22;;;;;;;20.12;52.43;101617.25;4967803;28;20112;-85
2021/09/23 10:09:08;;;;;;;14.20;6.72;;;;;;;20.18;51.39;101621.72;4978224;28;20056;-85
2021/09/23 10:11:36;;;;;;;11.38;6.80;;;;;;;20.22;52.61;101617.69;4976995;28;20027;-82
2021/09/23 10:14:03;;;;;;;15.65;7.00;;;;;;;20.29;51.64;101604.53;4988952;28;20030;-77
2021/09/23 10:16:29;;;;;;;12.35;5.78;;;;;;;20.11;51.77;101610.38;4979861;28;20061;-80
2021/09/23 10:18:57;;;;;;;13.15;6.85;;;;;;;20.14;51.08;101606.53;4988946;28;20053;-81
2021/09/23 10:21:24;;;;;;;13.20;5.97;;;;;;;20.16;51.45;101612.41;4992581;28;20068;-78
2021/09/23 10:23:51;;;;;;;11.10;5.97;;;;;;;20.07;50.75;101600.44;4993681;28;20030;-79
2021/09/23 10:26:19;;;;;;;9.30;5.25;;;;;;;20.09;51.29;101580.78;4979542;28;20038;-83
2021/09/23 10:28:47;;;;;;;12.18;6.18;;;;;;;20.09;51.34;101574.72;4982331;28;20041;-78
2021/09/23 10:31:21;;;;;;;9.23;6.28;;;;;;;20.10;51.79;101578.97;4988587;28;20413;-78
2021/09/23 10:33:48;;;;;;;10.68;5.07;;;;;;;20.39;50.82;101588.31;4986353;28;20034;-79
2021/09/23 10:36:16;;;;;;;10.63;5.40;;;;;;;20.38;50.95;101584.91;4972131;28;20482;-79
2021/09/23 10:38:44;;;;;;;19.95;7.65;;;;;;;20.33;50.71;101581.25;4983469;28;20037;-81
2021/09/23 10:41:11;;;;;;;27.33;9.88;;;;;;;20.51;51.25;101583.25;4970421;28;20026;-77
2021/09/23 10:43:40;;;;;;;28.60;15.27;;;;;;;20.57;50.41;101578.00;4976441;28;20085;-79
2021/09/23 10:46:06;;;;;;;15.55;9.20;;;;;;;20.60;50.63;101571.53;4974823;28;20025;-78
2021/09/23 10:48:41;;;;;;;24.15;13.63;;;;;;;20.61;50.22;101573.16;4973839;28;20113;-81
2021/09/23 10:51:09;;;;;;;20.25;10.73;;;;;;;20.74;49.61;101569.72;4986676;28;20037;-79
2021/09/23 10:53:36;;;;;;;16.65;5.32;;;;;;;20.63;49.13;101565.06;4971266;28;20297;-79
2021/09/23 10:56:11;;;;;;;10.07;4.63;;;;;;;20.62;49.73;101566.88;4970912;28;20398;-78
2021/09/23 10:58:42;;;;;;;15.98;5.47;;;;;;;20.48;48.54;101559.97;4986023;28;20033;-78
2021/09/23 11:01:20;;;;;;;7.25;4.43;;;;;;;20.46;48.60;101568.06;5003983;28;20057;-79
2021/09/23 11:03:49;;;;;;;8.02;4.18;;;;;;;20.43;49.56;101550.03;4986413;28;20430;-78
2021/09/23 11:06:15;;;;;;;10.50;4.22;;;;;;;20.55;49.12;101563.38;4969641;28;20030;-78
2021/09/23 11:08:44;;;;;;;10.07;4.15;;;;;;;20.51;49.94;101568.28;4982090;28;20056;-78
2021/09/23 11:11:11;;;;;;;11.57;5.88;;;;;;;20.42;48.90;101569.50;4988645;28;20021;-79
2021/09/23 11:13:39;;;;;;;10.43;5.68;;;;;;;20.42;49.66;101575.56;4970342;28;20591;-76
2021/09/23 11:16:11;;;;;;;12.88;5.32;;;;;;;20.23;50.14;101571.13;4997073;28;20096;-79
2021/09/23 11:18:40;;;;;;;12.77;6.60;;;;;;;20.03;51.05;101574.50;4994726;28;20078;-77